Time;durP1;ratioP1;P1;durP2;ratioP2;P2;SDS_P1;SDS_P2;PMS_P1;PMS_P2;Temp;Humidity;BMP_temperature;BMP_pressure;BME280_temperature;BME280_humidity;BME280_pressure;Samples;Min_cycle;Max_cycle;Signal;HPM_P1;HPM_P2
2019/04/29 00:01:31;;;;;;;3.1;2.7;;;;;;;6.66;78.5166;940.6614;;;;
2019/04/29 00:03:55;;;;;;;3.8;2.2;;;;;;;6.63;78.66895;940.6511;;;;
2019/04/29 00:06:28;;;;;;;2.8;1.9;;;;;;;6.43;80.12695;940.7291;;;;
2019/04/29 00:08:45;;;;;;;2.7;1.9;;;;;;;6.29;81.00195;940.6551;;;;
2019/04/29 00:11:10;;;;;;;3.1;2;;;;;;;6.43;80.29492;940.649;;;;
2019/04/29 00:13:36;;;;;;;2.4;2.1;;;;;;;6.62;79.00781;940.6218;;;;
2019/04/29 00:18:31;;;;;;;3.7;2.5;;;;;;;6.66;78.2793;940.7161;;;;
2019/04/29 00:20:51;;;;;;;2.5;2.2;;;;;;;6.44;79.39355;940.7406;;;;
2019/04/29 00:23:16;;;;;;;4.6;2.6;;;;;;;6.39;79;940.7144;;;;
2019/04/29 00:25:41;;;;;;;3.3;2.6;;;;;;;6.69;77.45801;940.7558;;;;
2019/04/29 00:28:06;;;;;;;2.7;2;;;;;;;6.42;77.9873;940.7717;;;;
2019/04/29 00:30:31;;;;;;;2.9;1.5;;;;;;;6.47;75.92578;940.7849;;;;
2019/04/29 00:32:56;;;;;;;2;1.5;;;;;;;6.41;75.25879;940.8148;;;;
2019/04/29 00:35:21;;;;;;;3.1;1.8;;;;;;;6.47;74.89648;940.8102;;;;
2019/04/29 00:45:39;;;;;;;2.5;2;;;;;;;6.06;75.77344;940.8908;;;;
2019/04/29 00:48:04;;;;;;;2.4;1.9;;;;;;;5.82;76.17188;940.9539;;;;
2019/04/29 00:50:29;;;;;;;2.6;1.8;;;;;;;5.73;75.81738;940.9097;;;;
2019/04/29 00:52:56;;;;;;;3.1;2.1;;;;;;;5.56;75.88965;941.0098;;;;
2019/04/29 00:55:24;;;;;;;2.6;2.2;;;;;;;5.5;77.51367;940.9597;;;;
2019/04/29 00:57:48;;;;;;;3.2;2.2;;;;;;;5.35;78.17676;940.9609;;;;
2019/04/29 01:00:23;;;;;;;3;2.1;;;;;;;5.47;77.31641;940.9532;;;;
2019/04/29 01:02:38;;;;;;;4.6;2.5;;;;;;;5.45;77.59375;940.9422;;;;
2019/04/29 01:05:25;;;;;;;4;2.8;;;;;;;5.48;77.89355;940.9946;;;;
2019/04/29 01:07:58;;;;;;;2.8;2.3;;;;;;;5.48;76.29297;940.9269;;;;
2019/04/29 01:10:31;;;;;;;3.7;2.6;;;;;;;5.48;76.76563;940.9188;;;;
2019/04/29 01:12:57;;;;;;;3.5;2.5;;;;;;;5.34;77.24902;940.8817;;;;
2019/04/29 01:15:31;;;;;;;3.1;2.6;;;;;;;5.22;77.72168;940.8444;;;;
2019/04/29 01:17:59;;;;;;;3.3;2.9;;;;;;;5.06;78.49414;940.9098;;;;
2019/04/29 01:20:24;;;;;;;3.3;2.9;;;;;;;4.94;78.98047;940.926;;;;
2019/04/29 01:22:50;;;;;;;3.3;3;;;;;;;5.19;78.31445;940.9345;;;;
2019/04/29 01:25:15;;;;;;;3.6;3.2;;;;;;;5.14;79.86035;940.9338;;;;
2019/04/29 01:27:49;;;;;;;4.4;3.4;;;;;;;4.94;80.21777;940.8422;;;;
2019/04/29 01:30:18;;;;;;;4.3;3.5;;;;;;;4.83;80.40039;940.8455;;;;
2019/04/29 01:32:47;;;;;;;4.2;3.7;;;;;;;4.75;80.39844;940.8251;;;;
2019/04/29 01:35:12;;;;;;;4.3;3.5;;;;;;;4.53;80.95215;940.9116;;;;
2019/04/29 01:37:41;;;;;;;6.1;3.9;;;;;;;4.74;80.65332;940.9146;;;;
2019/04/29 01:41:54;;;;;;;4.4;4;;;;;;;4.8;80.51953;940.8301;;;;
2019/04/29 01:42:30;;;;;;;4.9;4.4;;;;;;;4.9;80.55078;940.9372;;;;
2019/04/29 01:44:52;;;;;;;4.4;4;;;;;;;4.77;80.46875;940.8745;;;;
2019/04/29 01:47:17;;;;;;;4.2;3.8;;;;;;;4.85;79.51563;940.8232;;;;
2019/04/29 01:49:42;;;;;;;4.9;4.4;;;;;;;5.02;79.32227;940.9037;;;;
2019/04/29 01:52:08;;;;;;;5.1;4.6;;;;;;;5.13;79.73633;940.8752;;;;
2019/04/29 01:54:33;;;;;;;5.6;4.9;;;;;;;4.98;79.47168;940.8895;;;;
2019/04/29 01:56:58;;;;;;;5.4;4.9;;;;;;;5.02;79.48926;940.8452;;;;
2019/04/29 01:59:26;;;;;;;4.9;4;;;;;;;4.91;79.78516;940.7766;;;;
2019/04/29 02:01:49;;;;;;;4.9;4.4;;;;;;;5;80.39941;940.8127;;;;
2019/04/29 02:04:14;;;;;;;4.6;4.2;;;;;;;5.32;78.93555;940.8287;;;;
2019/04/29 02:06:43;;;;;;;4.4;4;;;;;;;5.41;78.45801;940.7634;;;;
2019/04/29 02:09:10;;;;;;;5.9;5.3;;;;;;;5.42;79.8457;940.8474;;;;
2019/04/29 02:11:32;;;;;;;6.2;5.6;;;;;;;5.55;79.3291;940.8002;;;;
2019/04/29 02:13:57;;;;;;;5.6;4.7;;;;;;;5.62;78.39453;940.8329;;;;
2019/04/29 02:16:22;;;;;;;6;5.5;;;;;;;5.72;77.48633;940.7798;;;;
2019/04/29 02:18:47;;;;;;;5.2;4.7;;;;;;;5.42;77.54492;940.7377;;;;
2019/04/29 02:21:12;;;;;;;6.1;5.5;;;;;;;5.42;78.4707;940.7755;;;;
2019/04/29 02:23:51;;;;;;;5.4;4.9;;;;;;;5.47;79.11035;940.8016;;;;
2019/04/29 02:26:03;;;;;;;5.6;5.1;;;;;;;5.51;78.25;940.7145;;;;
2019/04/29 02:28:28;;;;;;;5.8;5.3;;;;;;;5.5;77.95508;940.7023;;;;
2019/04/29 02:30:53;;;;;;;7.4;6.7;;;;;;;5.54;78.79688;940.6783;;;;
2019/04/29 02:33:18;;;;;;;8.3;7.5;;;;;;;5.76;78.52051;940.6633;;;;
2019/04/29 02:35:43;;;;;;;7.3;6.6;;;;;;;5.78;78.46875;940.6909;;;;
2019/04/29 02:38:14;;;;;;;5.4;4.9;;;;;;;6.02;76.2207;940.6067;;;;
2019/04/29 02:40:40;;;;;;;5.4;4.9;;;;;;;6.19;75.83105;940.5776;;;;
2019/04/29 02:43:03;;;;;;;5.1;4.6;;;;;;;5.77;77.57422;940.6035;;;;
2019/04/29 02:45:27;;;;;;;5.7;5.1;;;;;;;5.35;79.30469;940.5441;;;;
2019/04/29 02:47:55;;;;;;;5.9;5.2;;;;;;;5.47;79.20117;940.5701;;;;
2019/04/29 02:50:20;;;;;;;6.3;5.7;;;;;;;5.55;80.04004;940.5726;;;;
2019/04/29 02:52:45;;;;;;;7.4;6.4;;;;;;;5.53;79.09961;940.5192;;;;
2019/04/29 02:55:13;;;;;;;7.1;6.4;;;;;;;5.52;79.16406;940.5748;;;;
2019/04/29 02:57:42;;;;;;;6.5;5.9;;;;;;;5.64;79.13086;940.4734;;;;
2019/04/29 03:00:12;;;;;;;6.9;5.9;;;;;;;5.7;78.125;940.5539;;;;
2019/04/29 03:03:34;;;;;;;7.4;6.7;;;;;;;5.97;77.28418;940.4799;;;;
2019/04/29 03:05:10;;;;;;;7.9;7.1;;;;;;;5.92;77.24023;940.5717;;;;
2019/04/29 03:07:18;;;;;;;8.3;7.5;;;;;;;5.99;76.68848;940.5034;;;;
2019/04/29 03:09:45;;;;;;;10;8;;;;;;;5.7;78.87207;940.5494;;;;
2019/04/29 03:12:10;;;;;;;8.3;7.5;;;;;;;5.91;78.09668;940.5263;;;;
2019/04/29 03:14:37;;;;;;;8;7.3;;;;;;;5.94;77.74023;940.562;;;;
2019/04/29 03:17:02;;;;;;;8.2;7.4;;;;;;;6.13;77.28906;940.4895;;;;
2019/04/29 03:19:35;;;;;;;7.6;6.9;;;;;;;6.01;77.2002;940.5193;;;;
2019/04/29 03:21:56;;;;;;;7.7;6.9;;;;;;;5.8;78.4502;940.5754;;;;
2019/04/29 03:24:19;;;;;;;7.8;7.1;;;;;;;5.86;78.25781;940.5;;;;
2019/04/29 03:26:44;;;;;;;7.7;7;;;;;;;6.18;76.28125;940.515;;;;
2019/04/29 03:29:21;;;;;;;7.9;7.1;;;;;;;5.81;78.27051;940.546;;;;
2019/04/29 03:31:36;;;;;;;6.5;5.9;;;;;;;5.76;77.69824;940.5449;;;;
2019/04/29 03:34:02;;;;;;;6.5;5.9;;;;;;;5.22;79.65039;940.5917;;;;
2019/04/29 03:36:28;;;;;;;7.6;6.9;;;;;;;5.35;79.71094;940.5441;;;;
2019/04/29 03:38:56;;;;;;;8.8;7.9;;;;;;;5.28;80.50781;940.5622;;;;
2019/04/29 03:41:22;;;;;;;8.6;7.8;;;;;;;5.51;80.27051;940.6094;;;;
2019/04/29 03:43:47;;;;;;;8.6;7.8;;;;;;;5.62;79.625;940.5555;;;;
2019/04/29 03:46:25;;;;;;;8.6;7.7;;;;;;;5.8;78.30176;940.5673;;;;
2019/04/29 03:48:51;;;;;;;9.1;8.1;;;;;;;5.75;79.12891;940.4828;;;;
2019/04/29 03:51:31;;;;;;;9.2;8.3;;;;;;;5.98;77.85059;940.4661;;;;
2019/04/29 03:54:09;;;;;;;9.5;8.6;;;;;;;5.86;78.56152;940.5213;;;;
2019/04/29 03:56:55;;;;;;;6.8;6.2;;;;;;;5.9;78.89746;940.5775;;;;
2019/04/29 03:59:21;;;;;;;8.6;7.7;;;;;;;5.6;79.90332;940.535;;;;
2019/04/29 04:03:01;;;;;;;11.4;10.3;;;;;;;5.82;79.15332;940.6425;;;;
2019/04/29 04:07:49;;;;;;;10.7;9.6;;;;;;;5.85;79.76855;940.5724;;;;
2019/04/29 04:10:04;;;;;;;10.1;9.1;;;;;;;5.59;79.33691;940.6326;;;;
2019/04/29 04:12:29;;;;;;;10;9;;;;;;;5.68;78.88965;940.6269;;;;
2019/04/29 04:14:55;;;;;;;7.4;6.7;;;;;;;5.57;79.81738;940.6848;;;;
2019/04/29 04:17:26;;;;;;;6.6;6;;;;;;;5.47;80.74707;940.7131;;;;
2019/04/29 04:19:48;;;;;;;8;7.2;;;;;;;5.4;81.99707;940.7349;;;;
2019/04/29 04:22:10;;;;;;;8.2;6.9;;;;;;;5.61;79.83887;940.7916;;;;
2019/04/29 04:24:38;;;;;;;7.8;7.1;;;;;;;5.86;78.74414;940.7908;;;;
2019/04/29 04:27:03;;;;;;;9.7;8.8;;;;;;;5.88;79.60352;940.777;;;;
2019/04/29 04:29:28;;;;;;;9.1;8.2;;;;;;;5.75;78.67676;940.7144;;;;
2019/04/29 04:31:53;;;;;;;9.3;8.4;;;;;;;5.56;79.42285;940.7991;;;;
2019/04/29 04:34:20;;;;;;;10.5;9.1;;;;;;;5.65;78.81641;940.7888;;;;
2019/04/29 04:36:45;;;;;;;12.2;11;;;;;;;6.04;78.3125;940.8166;;;;
2019/04/29 04:39:10;;;;;;;12.7;10.4;;;;;;;5.93;78.70996;940.824;;;;
2019/04/29 04:41:36;;;;;;;11.1;10;;;;;;;5.89;78.78125;940.8564;;;;
2019/04/29 04:44:01;;;;;;;9.6;8.7;;;;;;;5.99;78.06543;940.9127;;;;
2019/04/29 04:46:26;;;;;;;10;9;;;;;;;5.97;78.16504;940.9604;;;;
2019/04/29 04:48:51;;;;;;;10.6;9.5;;;;;;;5.95;77.86816;940.9782;;;;
2019/04/29 04:51:16;;;;;;;10.2;9.1;;;;;;;6.27;77.42773;941.0317;;;;
2019/04/29 04:53:47;;;;;;;11.5;10.3;;;;;;;6.24;78.37305;941.08;;;;
2019/04/29 04:56:22;;;;;;;11.1;9.9;;;;;;;6.16;78.40332;941.0181;;;;
2019/04/29 04:58:38;;;;;;;12.7;11.2;;;;;;;6.23;78.96875;941.0472;;;;
2019/04/29 05:01:04;;;;;;;8.8;7.4;;;;;;;6.17;77.5459;941.0428;;;;
2019/04/29 05:03:29;;;;;;;7.6;6.9;;;;;;;6.01;77.77637;941.0378;;;;
2019/04/29 05:05:54;;;;;;;8.9;7.4;;;;;;;6.07;77.87793;941.0926;;;;
2019/04/29 05:08:19;;;;;;;9.1;8.2;;;;;;;5.95;78.16211;941.0541;;;;
2019/04/29 05:10:46;;;;;;;7.7;7;;;;;;;5.98;77.82813;941.0817;;;;
2019/04/29 05:13:11;;;;;;;7.6;6.8;;;;;;;5.86;78.26953;941.0983;;;;
2019/04/29 05:15:36;;;;;;;8.2;7.3;;;;;;;6.01;78.61035;941.0335;;;;
2019/04/29 05:18:01;;;;;;;9.9;8.3;;;;;;;5.9;80.36523;941.1631;;;;
2019/04/29 05:20:26;;;;;;;6.4;5.8;;;;;;;6.02;79.46289;941.1253;;;;
2019/04/29 05:23:00;;;;;;;8.3;7.5;;;;;;;6.37;78.01172;941.1423;;;;
2019/04/29 05:25:17;;;;;;;6.4;5.8;;;;;;;6.3;76.62988;941.1772;;;;
2019/04/29 05:27:42;;;;;;;8;7.2;;;;;;;6.35;78.2793;941.2112;;;;
2019/04/29 05:30:07;;;;;;;7.1;6.4;;;;;;;6.2;78.03711;941.163;;;;
2019/04/29 05:32:42;;;;;;;8.8;7.9;;;;;;;6.44;78.64648;941.1962;;;;
2019/04/29 05:35:21;;;;;;;8.4;7.5;;;;;;;6.59;78.40137;941.2061;;;;
2019/04/29 05:38:02;;;;;;;8.2;7.4;;;;;;;6.67;78.02051;941.2047;;;;
2019/04/29 05:40:43;;;;;;;7.4;6.7;;;;;;;6.61;77.24121;941.2006;;;;
2019/04/29 05:42:47;;;;;;;7.9;7.1;;;;;;;6.77;77.08789;941.1845;;;;
2019/04/29 05:45:27;;;;;;;7.2;6.5;;;;;;;6.6;76.73047;941.1589;;;;
2019/04/29 05:48:13;;;;;;;9.3;7;;;;;;;6.46;77.80176;941.2584;;;;
2019/04/29 05:53:31;;;;;;;8;7.2;;;;;;;6.35;78.96973;941.308;;;;
2019/04/29 05:55:13;;;;;;;8.2;7.4;;;;;;;6.71;77.80273;941.3239;;;;
2019/04/29 05:57:43;;;;;;;6.9;6.2;;;;;;;6.46;76.88574;941.313;;;;
2019/04/29 06:00:28;;;;;;;8.5;7;;;;;;;6.13;77.80859;941.2651;;;;
2019/04/29 06:03:06;;;;;;;10.8;7.9;;;;;;;6;80.10156;941.3463;;;;
2019/04/29 06:05:32;;;;;;;9.4;8.1;;;;;;;6.37;80.2168;941.3574;;;;
2019/04/29 06:08:00;;;;;;;9;7.9;;;;;;;6.31;78.14648;941.3113;;;;
2019/04/29 06:10:23;;;;;;;8;7.2;;;;;;;6.45;78.08105;941.3394;;;;
2019/04/29 06:12:48;;;;;;;8;7.1;;;;;;;6.59;78.16406;941.3879;;;;
2019/04/29 06:15:13;;;;;;;8;6.8;;;;;;;6.21;78.40039;941.3606;;;;
2019/04/29 06:17:38;;;;;;;9.5;6.9;;;;;;;6.64;78.11523;941.3422;;;;
2019/04/29 06:20:06;;;;;;;6.3;5.4;;;;;;;6.61;78.63281;941.3951;;;;
2019/04/29 06:22:33;;;;;;;6.8;5.4;;;;;;;6.95;78.72852;941.3782;;;;
2019/04/29 06:24:58;;;;;;;4.8;3.1;;;;;;;6.66;76.80762;941.3998;;;;
2019/04/29 06:27:23;;;;;;;3.6;3;;;;;;;6.73;76.79883;941.382;;;;
2019/04/29 06:29:49;;;;;;;4.5;3.3;;;;;;;6.68;77.00391;941.3814;;;;
2019/04/29 06:32:15;;;;;;;4.3;3.2;;;;;;;6.87;78;941.3506;;;;
2019/04/29 06:34:40;;;;;;;5.6;3.4;;;;;;;7.12;76.04102;941.3951;;;;
2019/04/29 06:37:05;;;;;;;7;4.8;;;;;;;6.39;76.63477;941.4317;;;;
2019/04/29 06:39:30;;;;;;;6.5;4.2;;;;;;;6.61;78.58789;941.3906;;;;
2019/04/29 06:42:01;;;;;;;4.5;3.8;;;;;;;6.57;77.59473;941.427;;;;
2019/04/29 06:44:26;;;;;;;6.6;4.2;;;;;;;6.41;79.12598;941.4009;;;;
2019/04/29 06:46:54;;;;;;;7.7;5.2;;;;;;;6.51;77.74219;941.3855;;;;
2019/04/29 06:49:16;;;;;;;9.2;5.3;;;;;;;6.6;78.31445;941.4247;;;;
2019/04/29 06:51:44;;;;;;;8;5.1;;;;;;;6.82;79.64453;941.43;;;;
2019/04/29 06:54:09;;;;;;;5.5;4.2;;;;;;;6.79;76.26465;941.4533;;;;
2019/04/29 06:56:34;;;;;;;6.3;4.5;;;;;;;6.86;78.14551;941.4146;;;;
2019/04/29 06:58:59;;;;;;;6.4;3.9;;;;;;;7.03;77.01074;941.3555;;;;
2019/04/29 07:01:24;;;;;;;7;4.2;;;;;;;6.73;78.06641;941.4153;;;;
2019/04/29 07:03:52;;;;;;;7.1;4.4;;;;;;;6.54;77.95215;941.366;;;;
2019/04/29 07:06:14;;;;;;;7.2;4.2;;;;;;;6.58;76.88574;941.3546;;;;
2019/04/29 07:08:40;;;;;;;10.7;4.7;;;;;;;6.2;78.3418;941.4114;;;;
2019/04/29 07:11:05;;;;;;;8.6;5.2;;;;;;;6.7;77.41406;941.4263;;;;
2019/04/29 07:13:30;;;;;;;9.5;5.5;;;;;;;6.86;78.06641;941.5158;;;;
2019/04/29 07:15:57;;;;;;;7.1;4.9;;;;;;;7.12;76.90234;941.5471;;;;
2019/04/29 07:18:22;;;;;;;8.7;5;;;;;;;7.07;76.15625;941.5425;;;;
2019/04/29 07:20:47;;;;;;;6.6;5.1;;;;;;;7.2;75.15918;941.5413;;;;
2019/04/29 07:23:13;;;;;;;7.4;4.4;;;;;;;7.19;74.25293;941.5038;;;;
2019/04/29 07:25:38;;;;;;;5.1;4.5;;;;;;;7.07;77.0957;941.5719;;;;
2019/04/29 07:28:03;;;;;;;7.5;4.9;;;;;;;7.37;75.8916;941.4947;;;;
2019/04/29 07:30:29;;;;;;;7.7;4.9;;;;;;;7.4;75.33105;941.5176;;;;
2019/04/29 07:32:54;;;;;;;6.7;4.6;;;;;;;7.39;74.83105;941.5689;;;;
2019/04/29 07:35:19;;;;;;;5.5;4.7;;;;;;;7.51;74.8623;941.5557;;;;
2019/04/29 07:37:44;;;;;;;6.1;4.7;;;;;;;7.81;72.39551;941.5453;;;;
2019/04/29 07:40:09;;;;;;;6;5;;;;;;;7.72;73.52832;941.5433;;;;
2019/04/29 07:42:34;;;;;;;7.1;5.7;;;;;;;7.17;73.80762;941.5176;;;;
2019/04/29 07:45:17;;;;;;;7.8;5.3;;;;;;;7.07;74.61523;941.4999;;;;
2019/04/29 07:47:48;;;;;;;9.5;6.3;;;;;;;7.47;76.69336;941.5333;;;;
2019/04/29 07:50:25;;;;;;;8.1;5.9;;;;;;;7.37;77.77344;941.5327;;;;
2019/04/29 07:53:07;;;;;;;7.6;5.3;;;;;;;7.33;77.60742;941.4763;;;;
2019/04/29 07:55:47;;;;;;;8.6;6.1;;;;;;;7.71;76.02051;941.4724;;;;
2019/04/29 07:58:25;;;;;;;9.9;6;;;;;;;7.98;77.31836;941.4683;;;;
2019/04/29 08:00:57;;;;;;;10.5;5.9;;;;;;;8.06;75.37891;941.5045;;;;
2019/04/29 08:03:25;;;;;;;6.4;5.1;;;;;;;7.68;73.37305;941.4922;;;;
2019/04/29 08:05:50;;;;;;;8.4;6;;;;;;;7.83;76.21289;941.4885;;;;
2019/04/29 08:08:15;;;;;;;8.3;5.7;;;;;;;7.66;75.00098;941.4512;;;;
2019/04/29 08:10:40;;;;;;;7;5.9;;;;;;;7.92;76.47656;941.4945;;;;
2019/04/29 08:13:05;;;;;;;9.1;6.6;;;;;;;8.38;74.4248;941.4325;;;;
2019/04/29 08:15:30;;;;;;;7.3;5.7;;;;;;;7.85;72.71973;941.4451;;;;
2019/04/29 08:17:57;;;;;;;6.8;5.8;;;;;;;7.38;75.36035;941.4094;;;;
2019/04/29 08:20:22;;;;;;;8.8;5.8;;;;;;;7.6;75.20703;941.367;;;;
2019/04/29 08:22:49;;;;;;;8.2;6;;;;;;;7.77;77.91504;941.3621;;;;
2019/04/29 08:25:14;;;;;;;8;6;;;;;;;7.93;75.95801;941.3323;;;;
2019/04/29 08:27:42;;;;;;;8.6;5.8;;;;;;;7.85;75.18359;941.4025;;;;
2019/04/29 08:30:07;;;;;;;8;5.6;;;;;;;7.8;74.76758;941.4525;;;;
2019/04/29 08:32:33;;;;;;;9.8;5.8;;;;;;;7.53;74.66211;941.4865;;;;
2019/04/29 08:34:58;;;;;;;9.6;7.4;;;;;;;7.88;76.4248;941.4934;;;;
2019/04/29 08:37:23;;;;;;;11.6;7.9;;;;;;;8.22;75.43945;941.5006;;;;
2019/04/29 08:39:48;;;;;;;9.7;7.4;;;;;;;8.21;75.08594;941.535;;;;
2019/04/29 08:42:18;;;;;;;10.6;7.1;;;;;;;8.42;74.16992;941.5059;;;;
2019/04/29 08:47:18;;;;;;;10.4;7.7;;;;;;;8.75;73.66895;941.5133;;;;
2019/04/29 08:49:29;;;;;;;10.7;7.7;;;;;;;9.1;70.50781;941.5013;;;;
2019/04/29 08:51:54;;;;;;;9;6.6;;;;;;;8.97;69.04297;941.4444;;;;
2019/04/29 08:54:19;;;;;;;10.5;6.3;;;;;;;8.92;66.66992;941.4903;;;;
2019/04/29 08:56:44;;;;;;;7.9;5.8;;;;;;;8.89;66.26465;941.43;;;;
2019/04/29 08:59:09;;;;;;;9.8;6.8;;;;;;;9.12;69.79395;941.4914;;;;
2019/04/29 09:01:37;;;;;;;10.3;6.7;;;;;;;9.29;69.30957;941.515;;;;
2019/04/29 09:04:00;;;;;;;11;7.3;;;;;;;9.03;70.7373;941.4141;;;;
2019/04/29 09:06:25;;;;;;;10.6;7.2;;;;;;;8.97;70.3623;941.4397;;;;
2019/04/29 09:08:53;;;;;;;11;8.1;;;;;;;9.06;72.0957;941.4409;;;;
2019/04/29 09:11:18;;;;;;;9.8;7.1;;;;;;;8.92;70.10449;941.4482;;;;
2019/04/29 09:13:43;;;;;;;11.5;7.7;;;;;;;9.02;70.30176;941.3981;;;;
2019/04/29 09:16:10;;;;;;;11.8;7.9;;;;;;;9.02;70.22363;941.4824;;;;
2019/04/29 09:18:38;;;;;;;11.8;8.2;;;;;;;8.73;71.98242;941.57;;;;
2019/04/29 09:21:03;;;;;;;11.1;7.9;;;;;;;8.75;71.71289;941.5;;;;
2019/04/29 09:23:29;;;;;;;13.2;8.3;;;;;;;8.78;72.30859;941.5108;;;;
2019/04/29 09:27:46;;;;;;;12.7;9;;;;;;;8.66;72.8916;941.5503;;;;
2019/04/29 09:28:20;;;;;;;12.2;8.1;;;;;;;8.43;73.28516;941.5093;;;;
2019/04/29 09:30:45;;;;;;;13.4;8.2;;;;;;;8.54;71.82617;941.5934;;;;
2019/04/29 09:33:14;;;;;;;11.9;8.4;;;;;;;8.71;72.54785;941.6094;;;;
2019/04/29 09:35:47;;;;;;;15.5;10.1;;;;;;;7.88;76.30176;941.6284;;;;
2019/04/29 09:38:14;;;;;;;13.2;9.1;;;;;;;8.19;74.93652;941.6545;;;;
2019/04/29 09:40:45;;;;;;;17.2;11;;;;;;;8.22;74.56543;941.653;;;;
2019/04/29 09:43:24;;;;;;;10.4;8.3;;;;;;;8.57;73.80957;941.6164;;;;
2019/04/29 09:45:39;;;;;;;9.2;7.7;;;;;;;8.51;73.00293;941.6174;;;;
2019/04/29 09:47:55;;;;;;;11;8;;;;;;;8.34;74.54199;941.6267;;;;
2019/04/29 09:50:20;;;;;;;9.4;6.8;;;;;;;8.03;74.10254;941.7054;;;;
2019/04/29 09:52:45;;;;;;;9.1;7;;;;;;;8.33;73.91504;941.7833;;;;
2019/04/29 09:55:10;;;;;;;8.7;6.7;;;;;;;8.42;73.0791;941.7137;;;;
2019/04/29 09:57:35;;;;;;;10.3;7.4;;;;;;;8.3;73.24023;941.7391;;;;
2019/04/29 10:00:10;;;;;;;9.3;7.1;;;;;;;8.32;73.77734;941.7712;;;;
2019/04/29 10:03:05;;;;;;;8.3;7;;;;;;;8.42;73.76074;941.7431;;;;
2019/04/29 10:05:00;;;;;;;8;6.3;;;;;;;8;76.62793;941.7249;;;;
2019/04/29 10:07:17;;;;;;;7.9;5.9;;;;;;;8.39;75.05078;941.6945;;;;
2019/04/29 10:09:42;;;;;;;8.5;5.6;;;;;;;8.64;73.89063;941.6953;;;;
2019/04/29 10:12:08;;;;;;;6.1;5.3;;;;;;;8.81;71.66797;941.5461;;;;
2019/04/29 10:14:33;;;;;;;7.4;5.5;;;;;;;9.37;69.84473;941.5553;;;;
2019/04/29 10:17:23;;;;;;;6.5;5.6;;;;;;;9.39;70.47559;941.6002;;;;
2019/04/29 10:19:37;;;;;;;7.6;5.4;;;;;;;9.5;69.6748;941.5693;;;;
2019/04/29 10:21:48;;;;;;;6.5;5.2;;;;;;;9.52;68.53906;941.5251;;;;
2019/04/29 10:24:13;;;;;;;5.8;4.9;;;;;;;9.06;69.35156;941.5133;;;;
2019/04/29 10:26:38;;;;;;;7;5.3;;;;;;;9.21;69.52441;941.5769;;;;
2019/04/29 10:29:08;;;;;;;7.4;6;;;;;;;9.15;69.35645;941.4801;;;;
2019/04/29 10:31:29;;;;;;;6.5;5.8;;;;;;;8.92;72.85742;941.4522;;;;
2019/04/29 10:33:54;;;;;;;6.2;5.4;;;;;;;9.4;70.625;941.4255;;;;
2019/04/29 10:36:20;;;;;;;6.9;5.3;;;;;;;9.48;68.74805;941.4233;;;;
2019/04/29 10:38:46;;;;;;;7.4;5.5;;;;;;;9.07;69.75293;941.3514;;;;
2019/04/29 10:41:21;;;;;;;8.1;5.8;;;;;;;9.06;70.32031;941.3306;;;;
2019/04/29 10:44:07;;;;;;;7.3;6.3;;;;;;;9.5;69.55957;941.2949;;;;
2019/04/29 10:48:48;;;;;;;8.2;5.6;;;;;;;9.5;66.97559;941.3109;;;;
2019/04/29 10:51:08;;;;;;;7.3;5.4;;;;;;;9.27;66.9043;941.2753;;;;
2019/04/29 10:53:32;;;;;;;7.2;5.6;;;;;;;9.13;70.52539;941.4058;;;;
2019/04/29 10:56:02;;;;;;;7;6;;;;;;;8.93;70.57227;941.3158;;;;
2019/04/29 10:58:29;;;;;;;6.1;5.5;;;;;;;9.11;71.16992;941.3522;;;;
2019/04/29 11:01:25;;;;;;;6.9;5.7;;;;;;;9.51;68.27344;941.3699;;;;
2019/04/29 11:03:48;;;;;;;7.7;5.7;;;;;;;9.59;68.53906;941.2562;;;;
2019/04/29 11:06:13;;;;;;;6.4;5.2;;;;;;;9.6;69.91699;941.2897;;;;
2019/04/29 11:08:48;;;;;;;6.3;4;;;;;;;9.71;69.7998;941.183;;;;
2019/04/29 11:11:04;;;;;;;5.3;4.2;;;;;;;9.7;70.86816;941.1923;;;;
2019/04/29 11:13:29;;;;;;;4.9;4.1;;;;;;;10.28;65.97754;941.1511;;;;
2019/04/29 11:15:54;;;;;;;4.4;3.5;;;;;;;10.29;64.3916;941.2181;;;;
2019/04/29 11:18:20;;;;;;;4.3;3.5;;;;;;;10.59;63.60352;941.1487;;;;
2019/04/29 11:20:45;;;;;;;4.7;3.7;;;;;;;11.2;63.57813;941.1573;;;;
2019/04/29 11:25:47;;;;;;;5.3;4.3;;;;;;;11;62.08789;941.0606;;;;
2019/04/29 11:28:00;;;;;;;5.5;4.2;;;;;;;11.13;63.68359;941.0402;;;;
2019/04/29 11:30:26;;;;;;;5.5;4.4;;;;;;;10.96;63.14551;941.0131;;;;
2019/04/29 11:33:38;;;;;;;6.2;4.3;;;;;;;11.18;64.14746;941.0064;;;;
2019/04/29 11:35:41;;;;;;;5.2;4.3;;;;;;;11.16;62.78516;940.9313;;;;
2019/04/29 11:37:44;;;;;;;6.7;4.5;;;;;;;11.19;65.00781;940.9794;;;;
2019/04/29 11:40:10;;;;;;;7.5;5.2;;;;;;;11.7;66.05664;940.9409;;;;
2019/04/29 11:42:35;;;;;;;7;5.1;;;;;;;10.6;65.90137;940.9307;;;;
2019/04/29 11:45:00;;;;;;;6;5.4;;;;;;;10.88;69.95508;940.9356;;;;
2019/04/29 11:47:43;;;;;;;6.1;5;;;;;;;11.1;64.16992;940.882;;;;
2019/04/29 11:50:42;;;;;;;4.8;4.3;;;;;;;10.86;64.67285;940.8525;;;;
2019/04/29 11:53:07;;;;;;;6.2;4.7;;;;;;;10.58;66.59375;940.8778;;;;
2019/04/29 11:55:32;;;;;;;5.7;5.1;;;;;;;10.06;69.68555;940.8298;;;;
2019/04/29 11:58:03;;;;;;;6.8;4.6;;;;;;;10.19;65.70313;940.8309;;;;
2019/04/29 12:03:02;;;;;;;5.2;4.6;;;;;;;10.46;65.84375;940.8674;;;;
2019/04/29 12:05:45;;;;;;;5;4.5;;;;;;;10.03;68.89453;940.807;;;;
2019/04/29 12:08:08;;;;;;;5.8;4.9;;;;;;;10.38;69.33691;940.764;;;;
2019/04/29 12:10:32;;;;;;;5.5;4.5;;;;;;;10.35;66.91309;940.8003;;;;
2019/04/29 12:12:59;;;;;;;4.6;4.2;;;;;;;10.13;68.33984;940.76;;;;
2019/04/29 12:15:31;;;;;;;5.7;4.8;;;;;;;10.5;67.5752;940.7493;;;;
2019/04/29 12:18:00;;;;;;;6;4.6;;;;;;;10.41;67.68652;940.7486;;;;
2019/04/29 12:20:23;;;;;;;5.7;5;;;;;;;10.56;68.26953;940.735;;;;
2019/04/29 12:22:41;;;;;;;6.7;4.8;;;;;;;10.49;68.46484;940.7453;;;;
2019/04/29 12:25:07;;;;;;;5.7;5.1;;;;;;;10.7;66.68164;940.7905;;;;
2019/04/29 12:27:31;;;;;;;6.7;5.6;;;;;;;10.75;66.3916;940.7648;;;;
2019/04/29 12:29:57;;;;;;;6.9;5.2;;;;;;;10.98;66.2334;940.7266;;;;
2019/04/29 12:32:30;;;;;;;6.4;5.7;;;;;;;11.11;67.95703;940.7275;;;;
2019/04/29 12:35:06;;;;;;;6.2;5.2;;;;;;;11.24;65.72363;940.6989;;;;
2019/04/29 12:46:37;;;;;;;6.1;5.5;;;;;;;10.86;65.66602;940.8358;;;;
2019/04/29 12:48:56;;;;;;;8.1;5.3;;;;;;;10.69;67.09082;940.7148;;;;
2019/04/29 12:51:21;;;;;;;9.1;4.9;;;;;;;10.75;64.01758;940.7473;;;;
2019/04/29 12:53:52;;;;;;;5.7;4.5;;;;;;;10.68;63.66406;940.8094;;;;
2019/04/29 12:56:11;;;;;;;6.4;4.9;;;;;;;9.71;69.27637;940.8729;;;;
2019/04/29 12:58:37;;;;;;;7.4;5.2;;;;;;;9.63;70.85742;940.9144;;;;
2019/04/29 13:01:15;;;;;;;6.9;4.8;;;;;;;9.61;70.05664;940.8394;;;;
2019/04/29 13:03:45;;;;;;;5.1;4;;;;;;;9.38;70.07617;940.8084;;;;
2019/04/29 13:06:06;;;;;;;4.4;3.9;;;;;;;9.3;70.58594;940.7093;;;;
2019/04/29 13:08:27;;;;;;;6.7;3.8;;;;;;;9.23;71.56641;940.7868;;;;
2019/04/29 13:10:48;;;;;;;5.4;4;;;;;;;9.24;71.43164;940.6462;;;;
2019/04/29 13:13:12;;;;;;;11.1;7.2;;;;;;;9.04;72.46777;940.6972;;;;
2019/04/29 13:18:51;;;;;;;7.1;4.9;;;;;;;9.19;72.63965;940.6927;;;;
2019/04/29 13:20:27;;;;;;;7.2;5.2;;;;;;;8.96;72.17969;940.7335;;;;
2019/04/29 13:22:53;;;;;;;5.4;3.5;;;;;;;9.28;70.9707;940.6898;;;;
2019/04/29 13:25:20;;;;;;;8.4;7.2;;;;;;;8.78;73.18457;940.6637;;;;
2019/04/29 13:27:44;;;;;;;5.8;4;;;;;;;8.84;74.75293;940.6588;;;;
2019/04/29 13:30:10;;;;;;;6.4;5.3;;;;;;;8.67;74.50879;940.6259;;;;
2019/04/29 13:32:34;;;;;;;5.1;4.2;;;;;;;8.94;74.37402;940.6331;;;;
2019/04/29 13:35:04;;;;;;;4.4;3.3;;;;;;;9.28;71.54102;940.5748;;;;
2019/04/29 13:37:25;;;;;;;6.1;4.6;;;;;;;9.22;72.28223;940.5506;;;;
2019/04/29 13:39:49;;;;;;;5;4.2;;;;;;;9.36;72.37305;940.5681;;;;
2019/04/29 13:42:14;;;;;;;4.8;3.4;;;;;;;9.33;72.69727;940.5119;;;;
2019/04/29 13:44:40;;;;;;;5.1;3.5;;;;;;;9.37;72.27051;940.4872;;;;
2019/04/29 13:47:25;;;;;;;2.7;2.3;;;;;;;9.36;69.45801;940.445;;;;
2019/04/29 13:51:21;;;;;;;2.9;2.5;;;;;;;8.89;73.26074;940.3748;;;;
2019/04/29 13:51:58;;;;;;;3.7;2.8;;;;;;;9.33;72.57324;940.4222;;;;
2019/04/29 13:54:23;;;;;;;3.4;2.8;;;;;;;9.29;71.23535;940.451;;;;
2019/04/29 13:57:09;;;;;;;3;2.7;;;;;;;9.14;71.95996;940.4177;;;;
2019/04/29 14:00:01;;;;;;;4.2;2.9;;;;;;;9.16;70.35938;940.4579;;;;
2019/04/29 14:02:16;;;;;;;3.6;3;;;;;;;9.31;72.35352;940.4752;;;;
2019/04/29 14:04:41;;;;;;;4.7;3.4;;;;;;;9.18;73.11621;940.4138;;;;
2019/04/29 14:07:02;;;;;;;6.4;4.1;;;;;;;9.04;72.77539;940.443;;;;
2019/04/29 14:09:50;;;;;;;5.5;4.3;;;;;;;8.89;75.22852;940.4216;;;;
2019/04/29 14:12:24;;;;;;;6.1;4.3;;;;;;;8.9;74.58203;940.4377;;;;
2019/04/29 14:14:49;;;;;;;6.6;3.7;;;;;;;8.91;74.43555;940.4116;;;;
2019/04/29 14:17:15;;;;;;;3.9;3.4;;;;;;;9;74.45117;940.4378;;;;
2019/04/29 14:19:40;;;;;;;3.4;2.7;;;;;;;9.19;72.33301;940.4258;;;;
2019/04/29 14:22:05;;;;;;;3.2;2.8;;;;;;;9.04;73.90137;940.3834;;;;
2019/04/29 14:24:54;;;;;;;3.7;3.1;;;;;;;9.41;72.18848;940.4875;;;;
2019/04/29 14:27:39;;;;;;;4.1;2.9;;;;;;;9.22;71.22168;940.4155;;;;
2019/04/29 14:30:04;;;;;;;5.3;3.3;;;;;;;8.72;74.78906;940.402;;;;
2019/04/29 14:32:30;;;;;;;5.5;3.5;;;;;;;8.34;75.53027;940.4796;;;;
2019/04/29 14:35:00;;;;;;;4.2;3.5;;;;;;;8.78;74.49219;940.4437;;;;
2019/04/29 14:37:20;;;;;;;4.5;3.4;;;;;;;9.14;73.53125;940.4425;;;;
2019/04/29 14:39:45;;;;;;;5.3;3.8;;;;;;;8.86;74.22266;940.4409;;;;
2019/04/29 14:42:26;;;;;;;6.6;3.6;;;;;;;9.24;71.86328;940.4048;;;;
2019/04/29 14:44:55;;;;;;;4.3;3.7;;;;;;;9.21;70.87891;940.4031;;;;
2019/04/29 14:47:39;;;;;;;4.1;3.3;;;;;;;9.27;69.11328;940.4108;;;;
2019/04/29 14:49:36;;;;;;;5.6;3.8;;;;;;;9.5;70.57324;940.3872;;;;
2019/04/29 14:51:52;;;;;;;6;3.7;;;;;;;9.6;69.91699;940.4373;;;;
2019/04/29 14:54:17;;;;;;;6.9;4.2;;;;;;;9.29;71.87109;940.3921;;;;
2019/04/29 14:56:43;;;;;;;4.1;3.1;;;;;;;9.47;69.19043;940.3684;;;;
2019/04/29 14:59:08;;;;;;;6.1;3.5;;;;;;;9.58;69.68652;940.3885;;;;
2019/04/29 15:04:03;;;;;;;5;3.9;;;;;;;9.65;68.93359;940.4464;;;;
2019/04/29 15:06:23;;;;;;;4.8;3.8;;;;;;;9.52;68.77637;940.4702;;;;
2019/04/29 15:08:53;;;;;;;5.2;3.9;;;;;;;9.4;69.1123;940.4458;;;;
2019/04/29 15:11:21;;;;;;;7.7;4.4;;;;;;;9.14;71.49316;940.4853;;;;
2019/04/29 15:13:43;;;;;;;6.3;4.3;;;;;;;8.95;72.28223;940.5347;;;;
2019/04/29 15:16:20;;;;;;;5.6;4;;;;;;;8.74;73.12109;940.5105;;;;